Aviation Digital Data Service (ADDS)

Output produced by METARs form (2055 UTC 29 May 2017)
found at http://www.aviationweather.gov/adds/metars/
 
MBGT 291620Z 2918/3018 11015KT 9999 VCSH FEW015 SCT250
       
MBPV 291620Z 2918/3018 11015KT 9999 VCSH FEW015 SCT250